Time,TemperatureF,DewpointF,PressureIn,WindDirection,WindDirectionDegrees,WindSpeedMPH,WindSpeedGustMPH,Humidity,HourlyPrecipIn,Conditions,Clouds,dailyrainin,SolarRadiationWatts/m^2,SoftwareType,DateUTC
2013-02-06 00:21:00,50.0,47.0,-100.00,South,186,1.0,7.0,89,0.00,,,0.01,0.000000,,2013-02-06 08:21:00,
2013-02-06 00:31:00,50.0,47.0,-100.00,South,186,1.0,7.0,89,0.00,,,0.01,0.000000,,2013-02-06 08:31:00,
2013-02-06 00:41:00,50.0,47.0,-100.00,South,186,1.0,7.0,89,0.00,,,0.01,0.000000,,2013-02-06 08:41:00,
2013-02-06 00:51:00,50.0,47.0,-100.00,SW,236,4.0,6.0,90,0.00,,,0.01,0.000000,,2013-02-06 08:51:00,
2013-02-06 01:11:00,50.0,47.0,-100.00,SW,236,4.0,6.0,90,0.00,,,0.01,0.000000,,2013-02-06 09:11:00,
2013-02-06 01:21:00,50.0,47.0,-100.00,SW,236,4.0,6.0,90,0.00,,,0.01,0.000000,,2013-02-06 09:21:00,
2013-02-06 01:31:00,50.0,47.0,-100.00,SW,236,4.0,6.0,90,0.00,,,0.01,0.000000,,2013-02-06 09:31:00,
2013-02-06 01:41:00,50.0,47.0,-100.00,SW,236,4.0,6.0,90,0.00,,,0.01,0.000000,,2013-02-06 09:41:00,
2013-02-06 01:51:00,50.0,47.0,-100.00,SW,225,3.0,6.0,90,0.00,,,0.01,0.000000,,2013-02-06 09:51:00,
2013-02-06 02:11:00,50.0,47.0,-100.00,SW,225,3.0,6.0,90,0.00,,,0.01,0.000000,,2013-02-06 10:11:00,
2013-02-06 02:21:00,50.0,47.0,-100.00,SW,225,3.0,6.0,90,0.00,,,0.01,0.000000,,2013-02-06 10:21:00,
2013-02-06 02:31:00,50.0,47.0,-100.00,SW,225,3.0,6.0,90,0.00,,,0.01,0.000000,,2013-02-06 10:31:00,
2013-02-06 02:41:00,50.0,47.0,-100.00,SW,225,3.0,6.0,90,0.00,,,0.01,0.000000,,2013-02-06 10:41:00,
2013-02-06 02:51:00,49.0,48.0,-100.00,ESE,103,3.0,5.0,95,0.00,,,0.01,0.000000,,2013-02-06 10:51:00,
2013-02-06 03:22:00,49.0,48.0,-100.00,ESE,103,3.0,5.0,95,0.00,,,0.01,0.000000,,2013-02-06 11:22:00,
2013-02-06 03:32:00,49.0,48.0,-100.00,ESE,103,3.0,5.0,95,0.00,,,0.01,0.000000,,2013-02-06 11:32:00,
2013-02-06 03:42:00,49.0,48.0,-100.00,ESE,103,3.0,5.0,95,0.00,,,0.01,0.000000,,2013-02-06 11:42:00,
2013-02-06 03:51:00,49.0,47.0,-100.00,ESE,105,2.0,5.0,93,0.00,,,0.01,0.000000,,2013-02-06 11:51:00,
2013-02-06 04:12:00,49.0,47.0,-100.00,ESE,105,2.0,5.0,93,0.00,,,0.01,0.000000,,2013-02-06 12:12:00,
2013-02-06 04:22:00,49.0,47.0,-100.00,ESE,105,2.0,5.0,93,0.00,,,0.01,0.000000,,2013-02-06 12:22:00,
2013-02-06 04:32:00,49.0,47.0,-100.00,ESE,105,2.0,5.0,93,0.00,,,0.01,0.000000,,2013-02-06 12:32:00,
2013-02-06 04:42:00,49.0,47.0,-100.00,ESE,105,2.0,5.0,93,0.00,,,0.01,0.000000,,2013-02-06 12:42:00,
2013-02-06 04:51:00,49.0,47.0,-100.00,ESE,109,3.0,5.0,92,0.00,,,0.01,0.000000,,2013-02-06 12:51:00,
2013-02-06 05:11:00,49.0,47.0,-100.00,ESE,109,3.0,5.0,92,0.00,,,0.01,0.000000,,2013-02-06 13:11:00,
2013-02-06 05:21:00,49.0,47.0,-100.00,ESE,109,3.0,5.0,92,0.00,,,0.01,0.000000,,2013-02-06 13:21:00,
2013-02-06 05:31:00,49.0,47.0,-100.00,ESE,109,3.0,5.0,92,0.00,,,0.01,0.000000,,2013-02-06 13:31:00,
2013-02-06 05:42:00,49.0,47.0,-100.00,ESE,109,3.0,5.0,92,0.00,,,0.01,0.000000,,2013-02-06 13:42:00,
2013-02-06 05:51:00,50.0,46.0,-100.00,SSW,197,4.0,7.0,86,0.00,,,0.00,0.000000,,2013-02-06 13:51:00,
2013-02-06 06:21:00,50.0,46.0,-100.00,SSW,197,4.0,7.0,86,0.00,,,0.00,0.000000,,2013-02-06 14:21:00,
2013-02-06 06:31:00,50.0,46.0,-100.00,SSW,197,4.0,7.0,86,0.00,,,0.00,0.000000,,2013-02-06 14:31:00,
2013-02-06 06:41:00,50.0,46.0,-100.00,SSW,197,4.0,7.0,86,0.00,,,0.00,0.000000,,2013-02-06 14:41:00,
2013-02-06 06:51:00,50.0,47.0,-100.00,NE,56,3.0,8.0,89,0.00,,,0.00,0.000000,,2013-02-06 14:51:00,
2013-02-06 07:11:00,50.0,47.0,-100.00,NE,56,3.0,8.0,89,0.00,,,0.00,0.000000,,2013-02-06 15:11:00,
2013-02-06 07:21:00,50.0,47.0,-100.00,NE,56,3.0,8.0,89,0.00,,,0.00,0.000000,,2013-02-06 15:21:00,
2013-02-06 07:31:00,50.0,47.0,-100.00,NE,56,3.0,8.0,89,0.00,,,0.00,0.000000,,2013-02-06 15:31:00,
2013-02-06 07:41:00,50.0,47.0,-100.00,NE,56,3.0,8.0,89,0.00,,,0.00,0.000000,,2013-02-06 15:41:00,
2013-02-06 07:51:00,51.0,47.0,-100.00,North,353,0.0,6.0,85,0.00,,,0.00,33.000000,,2013-02-06 15:51:00,
2013-02-06 08:11:00,51.0,47.0,-100.00,North,353,0.0,6.0,85,0.00,,,0.00,33.000000,,2013-02-06 16:11:00,
2013-02-06 08:21:00,51.0,47.0,-100.00,North,353,0.0,6.0,85,0.00,,,0.00,33.000000,,2013-02-06 16:21:00,
2013-02-06 08:32:00,51.0,47.0,-100.00,North,353,0.0,6.0,85,0.00,,,0.00,33.000000,,2013-02-06 16:32:00,
2013-02-06 08:41:00,51.0,47.0,-100.00,North,353,0.0,6.0,85,0.00,,,0.00,33.000000,,2013-02-06 16:41:00,
2013-02-06 08:51:00,53.0,45.0,-100.00,NE,52,2.0,5.0,75,0.00,,,0.00,113.000000,,2013-02-06 16:51:00,
2013-02-06 09:11:00,53.0,45.0,-100.00,NE,52,2.0,5.0,75,0.00,,,0.00,113.000000,,2013-02-06 17:11:00,
2013-02-06 09:21:00,53.0,45.0,-100.00,NE,52,2.0,5.0,75,0.00,,,0.00,113.000000,,2013-02-06 17:21:00,
2013-02-06 09:32:00,53.0,45.0,-100.00,NE,52,2.0,5.0,75,0.00,,,0.00,113.000000,,2013-02-06 17:32:00,
2013-02-06 09:41:00,53.0,45.0,-100.00,NE,52,2.0,5.0,75,0.00,,,0.00,113.000000,,2013-02-06 17:41:00,
2013-02-06 09:51:00,56.0,46.0,-100.00,WSW,256,6.0,8.0,69,0.00,,,0.00,232.000000,,2013-02-06 17:51:00,
2013-02-06 10:11:00,56.0,46.0,-100.00,WSW,256,6.0,8.0,69,0.00,,,0.00,232.000000,,2013-02-06 18:11:00,
2013-02-06 10:22:00,56.0,46.0,-100.00,WSW,256,6.0,8.0,69,0.00,,,0.00,232.000000,,2013-02-06 18:22:00,
2013-02-06 10:32:00,56.0,46.0,-100.00,WSW,256,6.0,8.0,69,0.00,,,0.00,232.000000,,2013-02-06 18:32:00,
2013-02-06 10:41:00,56.0,46.0,-100.00,WSW,256,6.0,8.0,69,0.00,,,0.00,232.000000,,2013-02-06 18:41:00,
2013-02-06 10:51:00,58.0,46.0,-100.00,WNW,298,7.0,11.0,64,0.00,,,0.00,299.000000,,2013-02-06 18:51:00,
2013-02-06 11:21:00,58.0,46.0,-100.00,WNW,298,7.0,11.0,64,0.00,,,0.00,299.000000,,2013-02-06 19:21:00,
2013-02-06 11:31:00,58.0,46.0,-100.00,WNW,298,7.0,11.0,64,0.00,,,0.00,299.000000,,2013-02-06 19:31:00,
2013-02-06 11:41:00,58.0,46.0,-100.00,WNW,298,7.0,11.0,64,0.00,,,0.00,299.000000,,2013-02-06 19:41:00,
2013-02-06 11:51:00,59.0,45.0,-100.00,West,263,8.0,13.0,59,0.00,,,0.00,368.000000,,2013-02-06 19:51:00,
2013-02-06 12:11:00,59.0,45.0,-100.00,West,263,8.0,13.0,59,0.00,,,0.00,368.000000,,2013-02-06 20:11:00,
2013-02-06 12:21:00,59.0,45.0,-100.00,West,263,8.0,13.0,59,0.00,,,0.00,368.000000,,2013-02-06 20:21:00,
2013-02-06 12:31:00,59.0,45.0,-100.00,West,263,8.0,13.0,59,0.00,,,0.00,368.000000,,2013-02-06 20:31:00,
2013-02-06 12:41:00,59.0,45.0,-100.00,West,263,8.0,13.0,59,0.00,,,0.00,368.000000,,2013-02-06 20:41:00,
2013-02-06 12:51:00,62.0,48.0,-100.00,WSW,237,8.0,20.0,60,0.00,,,0.00,604.000000,,2013-02-06 20:51:00,
2013-02-06 13:11:00,62.0,48.0,-100.00,WSW,237,8.0,20.0,60,0.00,,,0.00,604.000000,,2013-02-06 21:11:00,
2013-02-06 13:21:00,62.0,48.0,-100.00,WSW,237,8.0,20.0,60,0.00,,,0.00,604.000000,,2013-02-06 21:21:00,
2013-02-06 13:32:00,62.0,48.0,-100.00,WSW,237,8.0,20.0,60,0.00,,,0.00,604.000000,,2013-02-06 21:32:00,
2013-02-06 13:41:00,62.0,48.0,-100.00,WSW,237,8.0,20.0,60,0.00,,,0.00,604.000000,,2013-02-06 21:41:00,
2013-02-06 13:51:00,62.0,47.0,-100.00,West,266,10.0,17.0,59,0.00,,,0.00,643.000000,,2013-02-06 21:51:00,
2013-02-06 14:11:00,62.0,47.0,-100.00,West,266,10.0,17.0,59,0.00,,,0.00,643.000000,,2013-02-06 22:11:00,
2013-02-06 14:21:00,62.0,47.0,-100.00,West,266,10.0,17.0,59,0.00,,,0.00,643.000000,,2013-02-06 22:21:00,
2013-02-06 14:31:00,62.0,47.0,-100.00,West,266,10.0,17.0,59,0.00,,,0.00,643.000000,,2013-02-06 22:31:00,
2013-02-06 14:41:00,62.0,47.0,-100.00,West,266,10.0,17.0,59,0.00,,,0.00,643.000000,,2013-02-06 22:41:00,
2013-02-06 14:51:00,61.0,47.0,-100.00,WSW,250,12.0,17.0,61,0.00,,,0.00,521.000000,,2013-02-06 22:51:00,
2013-02-06 15:11:00,61.0,47.0,-100.00,WSW,250,12.0,17.0,61,0.00,,,0.00,521.000000,,2013-02-06 23:11:00,
2013-02-06 15:21:00,61.0,47.0,-100.00,WSW,250,12.0,17.0,61,0.00,,,0.00,521.000000,,2013-02-06 23:21:00,
2013-02-06 15:31:00,61.0,47.0,-100.00,WSW,250,12.0,17.0,61,0.00,,,0.00,521.000000,,2013-02-06 23:31:00,
2013-02-06 15:41:00,61.0,47.0,-100.00,WSW,250,12.0,17.0,61,0.00,,,0.00,521.000000,,2013-02-06 23:41:00,
2013-02-06 15:51:00,59.0,48.0,-100.00,WSW,247,11.0,17.0,67,0.00,,,0.00,336.000000,,2013-02-06 23:51:00,
2013-02-06 16:11:00,59.0,48.0,-100.00,WSW,247,11.0,17.0,67,0.00,,,0.00,336.000000,,2013-02-07 00:11:00,
2013-02-06 16:21:00,59.0,48.0,-100.00,WSW,247,11.0,17.0,67,0.00,,,0.00,336.000000,,2013-02-07 00:21:00,
2013-02-06 16:31:00,59.0,48.0,-100.00,WSW,247,11.0,17.0,67,0.00,,,0.00,336.000000,,2013-02-07 00:31:00,
2013-02-06 16:41:00,59.0,48.0,-100.00,WSW,247,11.0,17.0,67,0.00,,,0.00,336.000000,,2013-02-07 00:41:00,
2013-02-06 16:51:00,56.0,47.0,-100.00,WSW,242,7.0,12.0,72,0.00,,,0.00,167.000000,,2013-02-07 00:51:00,
2013-02-06 17:11:00,56.0,47.0,-100.00,WSW,242,7.0,12.0,72,0.00,,,0.00,167.000000,,2013-02-07 01:11:00,
2013-02-06 17:21:00,56.0,47.0,-100.00,WSW,242,7.0,12.0,72,0.00,,,0.00,167.000000,,2013-02-07 01:21:00,
2013-02-06 17:31:00,56.0,47.0,-100.00,WSW,242,7.0,12.0,72,0.00,,,0.00,167.000000,,2013-02-07 01:31:00,
2013-02-06 17:41:00,56.0,47.0,-100.00,WSW,242,7.0,12.0,72,0.00,,,0.00,167.000000,,2013-02-07 01:41:00,
2013-02-06 17:51:00,52.0,46.0,-100.00,WSW,242,8.0,9.0,80,0.00,,,0.00,19.000000,,2013-02-07 01:51:00,
2013-02-06 18:21:00,52.0,46.0,-100.00,WSW,242,8.0,9.0,80,0.00,,,0.00,19.000000,,2013-02-07 02:21:00,
2013-02-06 18:31:00,52.0,46.0,-100.00,WSW,242,8.0,9.0,80,0.00,,,0.00,19.000000,,2013-02-07 02:31:00,
2013-02-06 18:41:00,52.0,46.0,-100.00,WSW,242,8.0,9.0,80,0.00,,,0.00,19.000000,,2013-02-07 02:41:00,
2013-02-06 18:51:00,51.0,46.0,-100.00,SSW,192,0.0,8.0,84,0.00,,,0.00,0.000000,,2013-02-07 02:51:00,
2013-02-06 19:11:00,51.0,46.0,-100.00,SSW,192,0.0,8.0,84,0.00,,,0.00,0.000000,,2013-02-07 03:11:00,
2013-02-06 19:21:00,51.0,46.0,-100.00,SSW,192,0.0,8.0,84,0.00,,,0.00,0.000000,,2013-02-07 03:21:00,
2013-02-06 19:31:00,51.0,46.0,-100.00,SSW,192,0.0,8.0,84,0.00,,,0.00,0.000000,,2013-02-07 03:31:00,
2013-02-06 19:41:00,51.0,46.0,-100.00,SSW,192,0.0,8.0,84,0.00,,,0.00,0.000000,,2013-02-07 03:41:00,
2013-02-06 19:51:00,50.0,46.0,-100.00,ENE,72,4.0,5.0,86,0.00,,,0.00,0.000000,,2013-02-07 03:51:00,
2013-02-06 20:11:00,50.0,46.0,-100.00,ENE,72,4.0,5.0,86,0.00,,,0.00,0.000000,,2013-02-07 04:11:00,
2013-02-06 20:22:00,50.0,46.0,-100.00,ENE,72,4.0,5.0,86,0.00,,,0.00,0.000000,,2013-02-07 04:22:00,
2013-02-06 20:31:00,50.0,46.0,-100.00,ENE,72,4.0,5.0,86,0.00,,,0.00,0.000000,,2013-02-07 04:31:00,
2013-02-06 20:41:00,50.0,46.0,-100.00,ENE,72,4.0,5.0,86,0.00,,,0.00,0.000000,,2013-02-07 04:41:00,
2013-02-06 20:51:00,50.0,47.0,-100.00,NNW,327,6.0,8.0,88,0.00,,,0.00,0.000000,,2013-02-07 04:51:00,
2013-02-06 21:11:00,50.0,47.0,-100.00,NNW,327,6.0,8.0,88,0.00,,,0.00,0.000000,,2013-02-07 05:11:00,
2013-02-06 21:21:00,50.0,47.0,-100.00,NNW,327,6.0,8.0,88,0.00,,,0.00,0.000000,,2013-02-07 05:21:00,
2013-02-06 21:32:00,50.0,47.0,-100.00,NNW,327,6.0,8.0,88,0.00,,,0.00,0.000000,,2013-02-07 05:32:00,
2013-02-06 21:42:00,50.0,47.0,-100.00,NNW,327,6.0,8.0,88,0.00,,,0.00,0.000000,,2013-02-07 05:42:00,
2013-02-06 21:51:00,48.0,46.0,-100.00,NE,54,4.0,8.0,94,0.00,,,0.00,0.000000,,2013-02-07 05:51:00,
2013-02-06 22:11:00,48.0,46.0,-100.00,NE,54,4.0,8.0,94,0.00,,,0.00,0.000000,,2013-02-07 06:11:00,
2013-02-06 22:22:00,48.0,46.0,-100.00,NE,54,4.0,8.0,94,0.00,,,0.00,0.000000,,2013-02-07 06:22:00,
2013-02-06 22:31:00,48.0,46.0,-100.00,NE,54,4.0,8.0,94,0.00,,,0.00,0.000000,,2013-02-07 06:31:00,
2013-02-06 22:43:00,48.0,46.0,-100.00,NE,54,4.0,8.0,94,0.00,,,0.00,0.000000,,2013-02-07 06:43:00,
2013-02-06 22:51:00,48.0,45.0,-100.00,NE,51,4.0,6.0,91,0.00,,,0.00,0.000000,,2013-02-07 06:51:00,
2013-02-06 23:22:00,48.0,45.0,-100.00,NE,51,4.0,6.0,91,0.00,,,0.00,0.000000,,2013-02-07 07:22:00,
2013-02-06 23:31:00,48.0,45.0,-100.00,NE,51,4.0,6.0,91,0.00,,,0.00,0.000000,,2013-02-07 07:31:00,
2013-02-06 23:41:00,48.0,45.0,-100.00,NE,51,4.0,6.0,91,0.00,,,0.00,0.000000,,2013-02-07 07:41:00,
2013-02-06 23:51:00,47.0,44.0,-100.00,ENE,58,5.0,7.0,88,0.00,,,0.00,0.000000,,2013-02-07 07:51:00,